createdAt,value
2023-11-27T00:01:04.611Z,8.57
2023-11-27T00:03:32.567Z,9.53
2023-11-27T00:06:00.400Z,7.83
2023-11-27T00:08:28.257Z,10.53
2023-11-27T00:10:58.775Z,9.83
2023-11-27T00:13:27.954Z,7.80
2023-11-27T00:15:57.185Z,10.77
2023-11-27T00:18:25.042Z,9.93
2023-11-27T00:20:53.692Z,8.97
2023-11-27T00:23:21.574Z,6.70
2023-11-27T00:25:49.444Z,8.73
2023-11-27T00:28:17.361Z,8.70
2023-11-27T00:30:45.754Z,8.17
2023-11-27T00:33:15.875Z,10.73
2023-11-27T00:35:43.856Z,9.33
2023-11-27T00:38:11.720Z,8.10
2023-11-27T00:40:39.541Z,9.97
2023-11-27T00:43:07.388Z,9.03
2023-11-27T00:45:35.525Z,10.33
2023-11-27T00:48:03.411Z,9.87
2023-11-27T00:50:33.019Z,9.53
2023-11-27T00:53:00.874Z,8.43
2023-11-27T00:55:28.759Z,8.70
2023-11-27T00:57:56.957Z,8.97
2023-11-27T01:00:26.073Z,6.07
2023-11-27T01:02:54.829Z,9.80
2023-11-27T01:05:22.848Z,9.57
2023-11-27T01:07:52.275Z,9.20
2023-11-27T01:10:20.388Z,9.97
2023-11-27T01:12:51.313Z,8.13
2023-11-27T01:15:19.943Z,8.20
2023-11-27T01:17:47.880Z,10.20
2023-11-27T01:20:15.881Z,8.93
2023-11-27T01:22:44.105Z,13.93
2023-11-27T01:25:13.416Z,6.70
2023-11-27T01:27:41.300Z,10.00
2023-11-27T01:30:10.056Z,9.50
2023-11-27T01:32:38.295Z,11.13
2023-11-27T01:35:06.949Z,7.73
2023-11-27T01:37:35.356Z,8.20
2023-11-27T01:40:03.270Z,7.43
2023-11-27T01:42:32.491Z,9.20
2023-11-27T01:45:00.356Z,8.73
2023-11-27T01:47:28.214Z,9.07
2023-11-27T01:49:56.834Z,11.20
2023-11-27T01:52:27.089Z,9.60
2023-11-27T01:54:55.588Z,8.90
2023-11-27T01:57:25.642Z,9.43
2023-11-27T01:59:57.519Z,11.30
2023-11-27T02:02:25.938Z,9.27
2023-11-27T02:04:53.897Z,7.60
2023-11-27T02:07:22.028Z,10.00
2023-11-27T02:09:49.956Z,7.83
2023-11-27T02:12:17.838Z,12.57
2023-11-27T02:14:46.351Z,9.43
2023-11-27T02:17:15.701Z,9.73
2023-11-27T02:19:43.589Z,9.57
2023-11-27T02:22:11.566Z,9.57
2023-11-27T02:24:40.836Z,6.97
2023-11-27T02:27:08.797Z,11.17
2023-11-27T02:29:36.878Z,9.00
2023-11-27T02:32:07.448Z,8.63
2023-11-27T02:34:35.369Z,10.07
2023-11-27T02:37:03.310Z,8.27
2023-11-27T02:39:31.176Z,12.37
2023-11-27T02:42:02.065Z,8.70
2023-11-27T02:44:30.353Z,7.87
2023-11-27T02:46:58.278Z,8.90
2023-11-27T02:49:26.168Z,8.83
2023-11-27T02:51:54.041Z,11.57
2023-11-27T02:54:21.950Z,14.97
2023-11-27T02:56:49.832Z,10.33
2023-11-27T02:59:19.414Z,9.27
2023-11-27T03:01:48.237Z,10.67
2023-11-27T03:04:16.194Z,8.60
2023-11-27T03:06:44.503Z,10.10
2023-11-27T03:09:17.116Z,10.00
2023-11-27T03:11:45.398Z,10.97
2023-11-27T03:14:13.244Z,8.53
2023-11-27T03:16:42.656Z,11.33
2023-11-27T03:19:10.622Z,10.27
2023-11-27T03:21:38.679Z,9.27
2023-11-27T03:24:07.278Z,12.10
2023-11-27T03:26:35.308Z,8.20
2023-11-27T03:29:04.403Z,10.70
2023-11-27T03:31:32.356Z,8.83
2023-11-27T03:34:01.601Z,7.60
2023-11-27T03:36:29.741Z,10.63
2023-11-27T03:38:57.682Z,10.27
2023-11-27T03:41:25.499Z,9.47
2023-11-27T03:43:54.658Z,10.23
2023-11-27T03:46:23.024Z,10.23
2023-11-27T03:48:51.003Z,10.00
2023-11-27T03:51:20.260Z,10.87
2023-11-27T03:53:48.161Z,7.67
2023-11-27T03:56:17.006Z,10.50
2023-11-27T03:58:44.846Z,9.67
2023-11-27T04:01:14.657Z,8.60
2023-11-27T04:03:42.674Z,9.73
2023-11-27T04:06:13.672Z,8.33
2023-11-27T04:08:44.079Z,8.23
2023-11-27T04:11:14.373Z,9.83
2023-11-27T04:13:42.944Z,9.37
2023-11-27T04:16:11.851Z,7.07
2023-11-27T04:18:39.894Z,8.53
2023-11-27T04:21:09.193Z,9.23
2023-11-27T04:23:37.040Z,8.23
2023-11-27T04:26:06.952Z,7.27
2023-11-27T04:28:34.828Z,8.70
2023-11-27T04:31:02.764Z,10.23
2023-11-27T04:33:30.728Z,7.77
2023-11-27T04:35:58.648Z,9.70
2023-11-27T04:38:26.570Z,8.40
2023-11-27T04:40:54.428Z,8.37
2023-11-27T04:43:24.575Z,8.53
2023-11-27T04:45:52.552Z,11.17
2023-11-27T04:48:20.952Z,11.07
2023-11-27T04:50:48.800Z,8.77
2023-11-27T04:53:16.621Z,9.83
2023-11-27T04:55:44.507Z,8.67
2023-11-27T04:58:12.392Z,10.50
2023-11-27T05:00:41.636Z,9.33
2023-11-27T05:03:09.527Z,8.67
2023-11-27T05:05:37.742Z,10.30
2023-11-27T05:08:06.002Z,9.23
2023-11-27T05:10:40.080Z,9.00
2023-11-27T05:13:08.069Z,10.77
2023-11-27T05:15:35.926Z,9.87
2023-11-27T05:18:05.886Z,8.53
2023-11-27T05:20:33.776Z,7.30
2023-11-27T05:23:02.963Z,9.27
2023-11-27T05:25:30.949Z,9.30
2023-11-27T05:27:58.862Z,8.93
2023-11-27T05:30:26.833Z,7.07
2023-11-27T05:32:54.762Z,9.13
2023-11-27T05:35:23.973Z,12.97
2023-11-27T05:37:51.835Z,9.73
2023-11-27T05:40:19.905Z,8.40
2023-11-27T05:42:47.767Z,7.43
2023-11-27T05:45:16.171Z,7.27
2023-11-27T05:47:44.323Z,8.73
2023-11-27T05:50:14.604Z,7.63
2023-11-27T05:52:44.123Z,7.73
2023-11-27T05:55:12.002Z,6.67
2023-11-27T05:57:39.856Z,5.87
2023-11-27T06:00:09.024Z,7.10
2023-11-27T06:02:42.655Z,5.53
2023-11-27T06:05:10.931Z,6.50
2023-11-27T06:07:39.025Z,7.03
2023-11-27T06:10:09.455Z,6.50
2023-11-27T06:12:37.309Z,4.93
2023-11-27T06:15:06.190Z,5.23
2023-11-27T06:17:34.212Z,5.83
2023-11-27T06:20:02.044Z,7.67
2023-11-27T06:22:33.305Z,8.10
2023-11-27T06:25:01.557Z,12.80
2023-11-27T06:27:30.874Z,7.50
2023-11-27T06:29:58.972Z,8.33
2023-11-27T06:32:26.869Z,6.43
2023-11-27T06:34:54.862Z,7.87
2023-11-27T06:37:22.941Z,6.73
2023-11-27T06:39:50.814Z,6.67
2023-11-27T06:42:18.656Z,4.47
2023-11-27T06:44:47.927Z,5.60
2023-11-27T06:47:15.836Z,7.60
2023-11-27T06:49:45.087Z,8.07
2023-11-27T06:52:12.997Z,6.13
2023-11-27T06:54:41.057Z,5.73
2023-11-27T06:57:10.096Z,6.10
2023-11-27T06:59:38.627Z,4.30
2023-11-27T07:02:07.994Z,9.20
2023-11-27T07:04:35.982Z,5.23
2023-11-27T07:07:04.013Z,6.13
2023-11-27T07:09:31.877Z,5.37
2023-11-27T07:11:59.761Z,6.03
2023-11-27T07:14:27.774Z,6.90
2023-11-27T07:16:55.959Z,8.23
2023-11-27T07:19:26.241Z,7.93
2023-11-27T07:21:54.159Z,6.00
2023-11-27T07:24:22.748Z,6.57
2023-11-27T07:26:50.678Z,5.53
2023-11-27T07:29:18.580Z,8.33
2023-11-27T07:31:48.256Z,9.07
2023-11-27T07:34:16.536Z,6.00
2023-11-27T07:36:45.847Z,6.17
2023-11-27T07:39:14.015Z,7.33
2023-11-27T07:41:41.886Z,7.27
2023-11-27T07:44:16.552Z,8.13
2023-11-27T07:46:44.642Z,6.13
2023-11-27T07:49:12.864Z,9.67
2023-11-27T07:51:40.779Z,8.07
2023-11-27T07:54:10.125Z,14.83
2023-11-27T07:56:38.054Z,11.00
2023-11-27T07:59:06.173Z,11.23
2023-11-27T08:01:35.705Z,12.10
2023-11-27T08:04:03.810Z,17.83
2023-11-27T08:06:31.784Z,13.67
2023-11-27T08:08:59.996Z,17.50
2023-11-27T08:11:33.304Z,13.27
2023-11-27T08:14:01.264Z,10.63
2023-11-27T08:16:29.610Z,8.90
2023-11-27T08:18:57.584Z,9.97
2023-11-27T08:21:26.192Z,9.27
2023-11-27T08:23:56.163Z,13.60
2023-11-27T08:26:24.812Z,13.43
2023-11-27T08:28:54.161Z,14.63
2023-11-27T08:31:23.890Z,14.33
2023-11-27T08:33:51.741Z,12.80
2023-11-27T08:36:25.907Z,12.00
2023-11-27T08:38:53.788Z,13.10
2023-11-27T08:41:21.734Z,13.10
2023-11-27T08:43:49.752Z,14.90
2023-11-27T08:46:20.537Z,13.40
2023-11-27T08:48:48.533Z,11.30
2023-11-27T08:51:16.462Z,9.80
2023-11-27T08:53:44.368Z,12.53
2023-11-27T08:56:13.141Z,12.23
2023-11-27T08:58:41.106Z,12.77
2023-11-27T09:01:09.708Z,11.97
2023-11-27T09:03:39.005Z,11.50
2023-11-27T09:06:07.984Z,8.47
2023-11-27T09:08:35.855Z,10.27
2023-11-27T09:11:03.920Z,10.50
2023-11-27T09:13:31.903Z,9.07
2023-11-27T09:15:59.961Z,8.97
2023-11-27T09:18:27.882Z,7.13
2023-11-27T09:20:57.063Z,7.63
2023-11-27T09:23:24.925Z,8.33
2023-11-27T09:25:53.086Z,8.53
2023-11-27T09:28:21.021Z,8.13
2023-11-27T09:30:49.361Z,8.57
2023-11-27T09:33:17.275Z,8.40
2023-11-27T09:35:45.161Z,9.27
2023-11-27T09:38:14.497Z,8.43
2023-11-27T09:40:44.151Z,9.10
2023-11-27T09:43:13.508Z,9.97
2023-11-27T09:45:41.543Z,8.17
2023-11-27T09:48:12.175Z,7.67
2023-11-27T09:50:46.566Z,10.33
2023-11-27T09:53:21.103Z,8.50
2023-11-27T09:55:53.328Z,9.43
2023-11-27T09:58:23.027Z,7.70
2023-11-27T10:00:51.059Z,6.27
2023-11-27T10:03:20.471Z,7.87
2023-11-27T10:05:50.667Z,10.37
2023-11-27T10:08:20.329Z,7.77
2023-11-27T10:10:49.226Z,8.10
2023-11-27T10:13:31.450Z,8.53
2023-11-27T10:16:06.863Z,8.23
2023-11-27T10:18:34.896Z,7.90
2023-11-27T10:21:02.853Z,9.20
2023-11-27T10:23:32.828Z,10.47
2023-11-27T10:26:02.108Z,10.57
2023-11-27T10:29:02.317Z,11.27
2023-11-27T10:31:32.248Z,7.47
2023-11-27T10:34:00.273Z,8.83
2023-11-27T10:36:28.358Z,12.40
2023-11-27T10:39:16.356Z,11.20
2023-11-27T10:41:47.005Z,12.17
2023-11-27T10:44:16.643Z,8.50
2023-11-27T10:46:46.104Z,10.70
2023-11-27T10:49:15.922Z,9.73
2023-11-27T10:51:46.856Z,12.20
2023-11-27T10:54:18.376Z,13.67
2023-11-27T10:56:47.650Z,17.73
2023-11-27T10:59:18.226Z,10.80
2023-11-27T11:01:49.997Z,18.17
2023-11-27T11:04:25.083Z,11.93
2023-11-27T11:06:56.661Z,12.63
2023-11-27T11:09:26.990Z,13.60
2023-11-27T11:11:56.527Z,9.40
2023-11-27T11:14:28.119Z,11.63
2023-11-27T11:17:08.685Z,11.03
2023-11-27T11:19:44.567Z,15.93
2023-11-27T11:22:25.894Z,9.93
2023-11-27T11:25:10.985Z,9.50
2023-11-27T11:27:47.627Z,13.00
2023-11-27T11:30:16.430Z,9.30
2023-11-27T11:32:46.070Z,10.53
2023-11-27T11:35:14.118Z,10.23
2023-11-27T11:37:50.436Z,11.73
2023-11-27T11:40:20.448Z,10.07
2023-11-27T11:42:51.111Z,10.57
2023-11-27T11:45:26.480Z,12.17
2023-11-27T11:47:58.953Z,13.73
2023-11-27T11:50:31.646Z,8.00
2023-11-27T11:53:04.858Z,10.83
2023-11-27T11:55:35.864Z,10.93
2023-11-27T11:58:08.772Z,7.20
2023-11-27T12:00:45.838Z,10.60
2023-11-27T12:03:18.033Z,9.40
2023-11-27T12:05:50.937Z,9.17
2023-11-27T12:08:19.208Z,11.40
2023-11-27T12:10:48.502Z,11.03
2023-11-27T12:13:16.668Z,9.10
2023-11-27T12:15:44.795Z,10.83
2023-11-27T12:18:14.317Z,13.13
2023-11-27T12:20:43.736Z,8.80
2023-11-27T12:23:14.734Z,12.87
2023-11-27T12:25:43.444Z,10.87
2023-11-27T12:28:13.496Z,11.10
2023-11-27T12:30:44.557Z,11.43
2023-11-27T12:33:16.278Z,10.60
2023-11-27T12:35:47.027Z,12.40
2023-11-27T12:38:18.712Z,11.10
2023-11-27T12:40:49.275Z,12.57
2023-11-27T12:43:19.632Z,8.57
2023-11-27T12:45:58.296Z,10.47
2023-11-27T12:48:26.432Z,12.40
2023-11-27T12:50:56.117Z,9.50
2023-11-27T12:53:24.933Z,12.00
2023-11-27T12:55:55.270Z,15.93
2023-11-27T12:58:25.661Z,9.03
2023-11-27T13:00:57.115Z,11.97
2023-11-27T13:03:29.329Z,16.13
2023-11-27T13:06:01.055Z,10.90
2023-11-27T13:08:33.439Z,8.80
2023-11-27T13:11:05.556Z,10.13
2023-11-27T13:13:35.556Z,12.77
2023-11-27T13:16:07.440Z,9.93
2023-11-27T13:18:36.641Z,15.80
2023-11-27T13:21:09.728Z,8.97
2023-11-27T13:23:38.971Z,13.03
2023-11-27T13:26:19.218Z,12.57
2023-11-27T13:28:48.530Z,18.73
2023-11-27T13:31:17.694Z,10.77
2023-11-27T13:33:45.901Z,9.53
2023-11-27T13:36:20.379Z,11.20
2023-11-27T13:38:48.964Z,10.47
2023-11-27T13:41:17.216Z,10.60
2023-11-27T13:43:45.354Z,9.33
2023-11-27T13:46:15.681Z,6.00
2023-11-27T13:48:43.830Z,5.90
2023-11-27T13:51:21.799Z,5.63
2023-11-27T13:53:49.654Z,5.20
2023-11-27T13:56:20.827Z,3.30
2023-11-27T13:58:53.256Z,3.60
2023-11-27T14:01:23.654Z,5.00
2023-11-27T14:03:52.045Z,6.13
2023-11-27T14:06:23.950Z,4.27
2023-11-27T14:08:55.198Z,4.23
2023-11-27T14:11:32.887Z,3.20
2023-11-27T14:14:06.629Z,3.23
2023-11-27T14:16:44.921Z,3.70
2023-11-27T14:19:43.039Z,3.10
2023-11-27T14:22:28.564Z,3.13
2023-11-27T14:24:59.333Z,2.37
2023-11-27T14:27:39.186Z,3.10
2023-11-27T14:30:13.752Z,3.53
2023-11-27T14:32:43.356Z,2.37
2023-11-27T14:35:15.973Z,3.37
2023-11-27T14:37:44.229Z,3.30
2023-11-27T14:40:21.355Z,4.10
2023-11-27T14:42:51.283Z,4.20
2023-11-27T14:45:19.340Z,3.30
2023-11-27T14:47:48.765Z,2.30
2023-11-27T14:50:21.596Z,3.70
2023-11-27T14:52:51.241Z,5.03
2023-11-27T14:55:20.999Z,2.77
2023-11-27T14:57:50.000Z,2.60
2023-11-27T15:00:23.481Z,2.63
2023-11-27T15:02:52.842Z,2.50
2023-11-27T15:05:20.794Z,3.33
2023-11-27T15:07:49.591Z,3.67
2023-11-27T15:10:18.178Z,5.90
2023-11-27T15:12:47.376Z,2.90
2023-11-27T15:15:19.178Z,3.60
2023-11-27T15:17:50.319Z,2.57
2023-11-27T15:20:24.324Z,2.70
2023-11-27T15:22:54.105Z,3.00
2023-11-27T15:25:24.456Z,2.60
2023-11-27T15:27:52.711Z,2.00
2023-11-27T15:30:22.617Z,3.83
2023-11-27T15:32:50.522Z,6.13
2023-11-27T15:35:20.509Z,2.40
2023-11-27T15:37:49.304Z,3.90
2023-11-27T15:40:21.700Z,1.30
2023-11-27T15:42:49.819Z,2.37
2023-11-27T15:45:17.686Z,12.83
2023-11-27T15:47:46.056Z,13.37
2023-11-27T15:50:15.061Z,10.23
2023-11-27T15:52:47.034Z,7.40
2023-11-27T15:55:15.601Z,11.33
2023-11-27T15:57:45.298Z,9.37
2023-11-27T16:00:15.872Z,7.77
2023-11-27T16:02:43.965Z,5.60
2023-11-27T16:05:12.366Z,3.10
2023-11-27T16:07:41.228Z,2.07
2023-11-27T16:10:15.416Z,3.47
2023-11-27T16:12:43.748Z,4.77
2023-11-27T16:15:12.210Z,4.60
2023-11-27T16:17:52.961Z,2.63
2023-11-27T16:20:27.468Z,2.03
2023-11-27T16:22:55.961Z,3.17
2023-11-27T16:25:25.763Z,7.00
2023-11-27T16:27:53.626Z,8.70
2023-11-27T16:30:23.400Z,7.03
2023-11-27T16:32:51.980Z,9.07
2023-11-27T16:35:23.373Z,8.43
2023-11-27T16:37:52.597Z,7.70
2023-11-27T16:40:21.967Z,11.63
2023-11-27T16:42:53.918Z,9.93
2023-11-27T16:45:24.193Z,10.43
2023-11-27T16:47:53.408Z,14.60
2023-11-27T16:50:25.712Z,6.53
2023-11-27T16:52:56.108Z,9.13
2023-11-27T16:55:25.616Z,12.67
2023-11-27T16:57:56.421Z,11.60
2023-11-27T17:00:25.882Z,7.60
2023-11-27T17:02:54.702Z,4.90
2023-11-27T17:05:24.486Z,7.27
2023-11-27T17:07:52.426Z,6.97
2023-11-27T17:10:22.710Z,6.00
2023-11-27T17:12:52.134Z,6.23
2023-11-27T17:15:21.559Z,7.67
2023-11-27T17:17:51.490Z,4.93
2023-11-27T17:20:21.943Z,4.30
2023-11-27T17:23:00.753Z,5.53
2023-11-27T17:25:36.562Z,4.03
2023-11-27T17:28:06.288Z,5.30
2023-11-27T17:30:35.629Z,2.67
2023-11-27T17:33:04.473Z,3.53
2023-11-27T17:35:32.987Z,4.07
2023-11-27T17:38:03.872Z,4.63
2023-11-27T17:40:31.939Z,2.37
2023-11-27T17:43:00.401Z,4.17
2023-11-27T17:45:29.085Z,2.80
2023-11-27T17:47:58.522Z,3.37
2023-11-27T17:50:27.190Z,4.60
2023-11-27T17:52:56.610Z,4.97
2023-11-27T17:55:26.955Z,4.20
2023-11-27T17:57:56.513Z,3.10
2023-11-27T18:00:24.631Z,3.83
2023-11-27T18:02:54.203Z,8.80
2023-11-27T18:05:25.244Z,6.33
2023-11-27T18:07:54.263Z,6.77
2023-11-27T18:10:24.221Z,7.87
2023-11-27T18:12:53.105Z,8.57
2023-11-27T18:15:22.048Z,6.23
2023-11-27T18:17:52.141Z,2.97
2023-11-27T18:20:23.433Z,2.70
2023-11-27T18:22:53.262Z,3.97
2023-11-27T18:25:22.722Z,3.10
2023-11-27T18:27:52.059Z,4.37
2023-11-27T18:30:20.514Z,2.27
2023-11-27T18:32:48.967Z,5.50
2023-11-27T18:35:18.052Z,1.57
2023-11-27T18:37:47.606Z,1.43
2023-11-27T18:40:18.882Z,2.40
2023-11-27T18:42:49.619Z,2.60
2023-11-27T18:45:22.298Z,3.40
2023-11-27T18:47:50.821Z,7.30
2023-11-27T18:50:18.697Z,12.03
2023-11-27T18:52:46.684Z,7.63
2023-11-27T18:55:16.496Z,2.53
2023-11-27T19:00:16.123Z,3.47
2023-11-27T19:02:44.427Z,4.00
2023-11-27T19:05:13.541Z,7.30
2023-11-27T19:07:42.139Z,7.30
2023-11-27T19:10:11.148Z,8.37
2023-11-27T19:12:41.349Z,9.20
2023-11-27T19:15:10.364Z,9.77
2023-11-27T19:17:38.483Z,16.83
2023-11-27T19:20:11.589Z,11.70
2023-11-27T19:22:39.814Z,14.30
2023-11-27T19:25:11.552Z,13.30
2023-11-27T19:27:41.039Z,15.43
2023-11-27T19:30:10.789Z,17.70
2023-11-27T19:32:40.489Z,13.80
2023-11-27T19:35:11.141Z,15.73
2023-11-27T19:37:39.242Z,14.30
2023-11-27T19:40:09.533Z,16.77
2023-11-27T19:42:37.630Z,17.27
2023-11-27T19:45:09.394Z,11.83
2023-11-27T19:47:37.537Z,11.40
2023-11-27T19:50:08.137Z,12.43
2023-11-27T19:52:36.224Z,9.03
2023-11-27T19:55:04.246Z,9.67
2023-11-27T19:57:32.094Z,10.20
2023-11-27T19:59:59.961Z,8.97
2023-11-27T20:02:29.293Z,5.30
2023-11-27T20:04:57.267Z,5.23
2023-11-27T20:07:25.184Z,5.23
2023-11-27T20:09:53.044Z,4.93
2023-11-27T20:12:20.886Z,4.27
2023-11-27T20:14:48.770Z,1.93
2023-11-27T20:17:16.772Z,2.13
2023-11-27T20:19:46.017Z,2.10
2023-11-27T20:22:13.915Z,2.43
2023-11-27T20:24:41.744Z,2.07
2023-11-27T20:27:10.214Z,1.97
2023-11-27T20:29:43.492Z,3.57
2023-11-27T20:32:11.451Z,2.63
2023-11-27T20:34:39.419Z,3.57
2023-11-27T20:37:08.948Z,2.70
2023-11-27T20:39:36.858Z,3.53
2023-11-27T20:42:04.846Z,4.60
2023-11-27T20:44:39.095Z,3.07
2023-11-27T20:47:12.579Z,4.30
2023-11-27T20:49:40.455Z,2.40
2023-11-27T20:52:12.060Z,2.57
2023-11-27T20:54:42.087Z,2.80
2023-11-27T20:57:09.958Z,2.63
2023-11-27T20:59:38.890Z,3.53
2023-11-27T21:02:07.165Z,2.60
2023-11-27T21:04:38.139Z,2.70
2023-11-27T21:07:08.436Z,2.37
2023-11-27T21:09:39.882Z,2.23
2023-11-27T21:12:08.996Z,2.33
2023-11-27T21:14:36.856Z,3.13
2023-11-27T21:17:05.438Z,2.40
2023-11-27T21:19:33.431Z,1.63
2023-11-27T21:22:01.579Z,3.37
2023-11-27T21:24:29.435Z,1.73
2023-11-27T21:27:00.872Z,1.93
2023-11-27T21:29:30.095Z,2.80
2023-11-27T21:31:58.014Z,1.40
2023-11-27T21:34:25.924Z,2.53
2023-11-27T21:36:53.787Z,1.70
2023-11-27T21:39:22.514Z,1.73
2023-11-27T21:41:50.579Z,1.97
2023-11-27T21:44:19.871Z,3.13
2023-11-27T21:46:47.773Z,2.57
2023-11-27T21:49:16.006Z,1.63
2023-11-27T21:51:43.857Z,2.60
2023-11-27T21:54:13.444Z,1.77
2023-11-27T21:56:41.316Z,1.60
2023-11-27T21:59:09.388Z,1.40
2023-11-27T22:01:38.753Z,1.73
2023-11-27T22:04:06.759Z,1.13
2023-11-27T22:06:34.980Z,4.13
2023-11-27T22:09:03.390Z,2.30
2023-11-27T22:11:31.257Z,1.60
2023-11-27T22:13:59.145Z,1.70
2023-11-27T22:16:27.774Z,1.30
2023-11-27T22:18:57.108Z,0.97
2023-11-27T22:21:24.929Z,1.03
2023-11-27T22:23:52.991Z,1.17
2023-11-27T22:26:21.009Z,0.90
2023-11-27T22:28:50.014Z,1.23
2023-11-27T22:31:21.196Z,0.87
2023-11-27T22:33:49.284Z,2.30
2023-11-27T22:36:19.093Z,0.63
2023-11-27T22:38:46.961Z,0.80
2023-11-27T22:41:15.389Z,0.70
2023-11-27T22:43:43.292Z,0.67
2023-11-27T22:46:11.570Z,0.87
2023-11-27T22:48:39.474Z,2.00
2023-11-27T22:51:08.324Z,0.80
2023-11-27T22:53:37.550Z,1.47
2023-11-27T22:56:06.103Z,0.80
2023-11-27T22:58:34.078Z,1.93
2023-11-27T23:01:01.955Z,2.53
2023-11-27T23:03:29.929Z,1.10
2023-11-27T23:05:57.978Z,0.73
2023-11-27T23:08:25.848Z,0.63
2023-11-27T23:10:55.270Z,1.67
2023-11-27T23:13:23.436Z,1.23
2023-11-27T23:15:51.326Z,0.97
2023-11-27T23:18:19.193Z,2.20
2023-11-27T23:20:47.075Z,1.63
2023-11-27T23:23:15.045Z,1.00
2023-11-27T23:25:44.515Z,0.57
2023-11-27T23:28:14.834Z,2.00
2023-11-27T23:30:44.236Z,1.10
2023-11-27T23:33:12.180Z,0.80
2023-11-27T23:35:40.430Z,0.87
2023-11-27T23:38:08.264Z,1.63
2023-11-27T23:40:36.760Z,0.80
2023-11-27T23:43:04.715Z,1.10
2023-11-27T23:45:34.652Z,0.93
2023-11-27T23:48:02.592Z,1.10
2023-11-27T23:50:30.553Z,2.00
2023-11-27T23:52:58.440Z,2.20
2023-11-27T23:55:26.379Z,0.50
2023-11-27T23:57:54.325Z,1.63
